Mc Neal, Arizona
Current Conditions -  °F | °C
As of 9:56 AM on Saturday 25 Oct 2014 (Local Time) from KDUG Reporting Station
Clear Clear  
Wind Chill: 75°   Ceiling: Unl
Heat Index: 75°   Visibility: 10mi
Dew Point: 46°   Wind: 0mph
Humidity: 36%   Direction: NA
Pressure: 30.25"   Gusts: NA
Location:  31.4669°N, 109.689°W
Report Text: KDUG 251656Z AUTO 00000KT 10SM CLR 24/08 A3025 RMK AO2 SLP183 T02390078
Loading
Personal Weather Stations






























Interactive Weather Map
Tropical Storm Tracking
New forecast layout! Learn more

10-Day Weather Forecast

Advertisements
Track Severe Weather on mobile